Latest Weather Observations for Ocean Reef

IDW60801

Issued at 1:32 pm WST Sunday 7 February 2016 (issued every 30 minutes, with the page automatically refreshed every 10 minutes)

About weather observations | Map of weather stations | Latest weather observations for WA | Other Formats
Station Details ID: 009214 Name: OCEAN REEF Lat: -31.76 Lon: 115.73 Height: 10.0 m
Data from the previous 72 hours. | See also: Recent months at Ocean Reef
Date/Time
WST
Temp
°C
App
Temp
°C
Dew
Point
Rel
Hum
%
Delta-T
°C
Wind Press
QNH
hPa
Press
MSL
hPa
Rain
since 9 am
mm
Dir
 
Spd
km/h
Gust
km/h
Spd
kts
Gust
kts
07/01:30pm - - - - - SSW 22 30 12 16 - - -
07/01:00pm - - - - - ESE 13 24 7 13 - - -
07/12:30pm - - - - - ENE 19 30 10 16 - - -
07/12:00pm - - - - - ENE 17 26 9 14 - - -
07/11:30am - - - - - NE 17 28 9 15 - - -
07/11:00am - - - - - NE 20 28 11 15 - - -
07/10:30am - - - - - NE 20 30 11 16 - - -
07/10:00am - - - - - ENE 24 35 13 19 - - -
07/09:30am - - - - - ENE 28 37 15 20 - - -
07/09:00am - - - - - ENE 32 46 17 25 - - -
07/08:30am - - - - - ENE 32 48 17 26 - - -
07/08:00am - - - - - ENE 32 46 17 25 - - -
07/07:30am - - - - - E 33 48 18 26 - - -
07/07:00am - - - - - ENE 32 48 17 26 - - -
07/06:30am - - - - - ENE 35 52 19 28 - - -
07/06:23am - - - - - ENE 33 52 18 28 - - -
07/06:00am - - - - - ENE 33 48 18 26 - - -
07/05:42am - - - - - ENE 32 50 17 27 - - -
07/05:30am - - - - - E 30 46 16 25 - - -
07/05:27am - - - - - E 28 46 15 25 - - -
07/05:00am - - - - - E 28 39 15 21 - - -
07/04:30am - - - - - E 30 37 16 20 - - -
07/04:00am - - - - - E 24 37 13 20 - - -
07/03:30am - - - - - E 22 33 12 18 - - -
07/03:00am - - - - - E 17 28 9 15 - - -
07/02:30am - - - - - ESE 17 26 9 14 - - -
07/02:00am - - - - - ESE 11 15 6 8 - - -
07/01:30am - - - - - ESE 9 13 5 7 - - -
07/01:00am - - - - - SSE 7 9 4 5 - - -
07/12:30am - - - - - E 6 7 3 4 - - -
07/12:00am - - - - - SE 9 11 5 6 - - -
 
Date/Time
WST
Temp
°C
App
Temp
°C
Dew
Point
Rel
Hum
%
Delta-T
°C
Wind Press
QNH
hPa
Press
MSL
hPa
Rain
since 9 am
mm
Dir
 
Spd
km/h
Gust
km/h
Spd
kts
Gust
kts
06/11:30pm - - - - - SSE 19 26 10 14 - - -
06/11:00pm - - - - - S 22 28 12 15 - - -
06/10:30pm - - - - - S 26 32 14 17 - - -
06/10:00pm - - - - - S 24 32 13 17 - - -
06/09:30pm - - - - - S 30 33 16 18 - - -
06/09:00pm - - - - - S 28 33 15 18 - - -
06/08:30pm - - - - - S 32 37 17 20 - - -
06/08:00pm - - - - - S 30 37 16 20 - - -
06/07:30pm - - - - - S 30 39 16 21 - - -
06/07:00pm - - - - - S 33 41 18 22 - - -
06/06:30pm - - - - - S 33 39 18 21 - - -
06/06:00pm - - - - - S 32 41 17 22 - - -
06/05:30pm - - - - - S 32 39 17 21 - - -
06/05:00pm - - - - - S 32 37 17 20 - - -
06/04:30pm - - - - - SSW 32 37 17 20 - - -
06/04:00pm - - - - - SSW 32 37 17 20 - - -
06/03:30pm - - - - - SSW 33 39 18 21 - - -
06/03:00pm - - - - - SSW 33 39 18 21 - - -
06/02:30pm - - - - - SSW 33 39 18 21 - - -
06/02:00pm - - - - - SSW 33 39 18 21 - - -
06/01:30pm - - - - - S 30 35 16 19 - - -
06/01:00pm - - - - - SSW 33 39 18 21 - - -
06/12:30pm - - - - - SSW 26 33 14 18 - - -
06/12:00pm - - - - - SSW 22 28 12 15 - - -
06/11:30am - - - - - SSW 15 19 8 10 - - -
06/11:00am - - - - - SSW 20 26 11 14 - - -
06/10:30am - - - - - S 24 28 13 15 - - -
06/10:00am - - - - - SSW 26 30 14 16 - - -
06/09:30am - - - - - SSW 20 26 11 14 - - -
06/09:00am - - - - - SSW 13 15 7 8 - - -
06/08:30am - - - - - SE 9 13 5 7 - - -
06/08:00am - - - - - SE 11 15 6 8 - - -
06/07:30am - - - - - SSE 13 19 7 10 - - -
06/07:00am - - - - - SE 13 15 7 8 - - -
06/06:30am - - - - - SE 13 15 7 8 - - -
06/06:00am - - - - - SE 13 13 7 7 - - -
06/05:30am - - - - - SE 11 13 6 7 - - -
06/05:00am - - - - - SSE 13 15 7 8 - - -
06/04:30am - - - - - S 22 30 12 16 - - -
06/04:00am - - - - - SSE 19 30 10 16 - - -
06/03:30am - - - - - S 24 28 13 15 - - -
06/03:00am - - - - - S 22 28 12 15 - - -
06/02:30am - - - - - SSE 9 9 5 5 - - -
06/02:00am - - - - - SSE 9 9 5 5 - - -
06/01:30am - - - - - S 9 9 5 5 - - -
06/01:00am - - - - - SSE 9 13 5 7 - - -
06/12:30am - - - - - S 13 15 7 8 - - -
06/12:00am - - - - - S 13 19 7 10 - - -
 
Date/Time
WST
Temp
°C
App
Temp
°C
Dew
Point
Rel
Hum
%
Delta-T
°C
Wind Press
QNH
hPa
Press
MSL
hPa
Rain
since 9 am
mm
Dir
 
Spd
km/h
Gust
km/h
Spd
kts
Gust
kts
05/11:30pm - - - - - S 17 22 9 12 - - -
05/11:00pm - - - - - S 17 22 9 12 - - -
05/10:30pm - - - - - S 19 22 10 12 - - -
05/10:00pm - - - - - SSE 13 19 7 10 - - -
05/09:30pm - - - - - S 17 20 9 11 - - -
05/09:00pm - - - - - S 17 22 9 12 - - -
05/08:30pm - - - - - S 20 26 11 14 - - -
05/08:00pm - - - - - S 22 30 12 16 - - -
05/07:30pm - - - - - S 26 32 14 17 - - -
05/07:00pm - - - - - S 28 32 15 17 - - -
05/06:30pm - - - - - S 30 37 16 20 - - -
05/06:00pm - - - - - S 26 32 14 17 - - -
05/05:30pm - - - - - S 28 33 15 18 - - -
05/05:00pm - - - - - S 26 33 14 18 - - -
05/04:30pm - - - - - S 24 28 13 15 - - -
05/04:00pm - - - - - S 22 30 12 16 - - -
05/03:30pm - - - - - S 19 24 10 13 - - -
05/03:00pm - - - - - SW 28 33 15 18 - - -
05/02:30pm - - - - - SW 33 39 18 21 - - -
05/02:00pm - - - - - SW 39 50 21 27 - - -
05/01:57pm - - - - - SW 37 50 20 27 - - -
05/01:30pm - - - - - SW 20 26 11 14 - - -
05/01:00pm - - - - - WSW 17 24 9 13 - - -
05/12:30pm - - - - - WSW 17 24 9 13 - - -
05/12:00pm - - - - - WSW 19 22 10 12 - - -
05/11:30am - - - - - WSW 15 19 8 10 - - -
05/11:00am - - - - - SW 13 15 7 8 - - -
05/10:30am - - - - - WSW 13 17 7 9 - - -
05/10:00am - - - - - WSW 7 13 4 7 - - -
05/09:30am - - - - - NE 13 19 7 10 - - -
05/09:00am - - - - - NNE 13 19 7 10 - - -
05/08:30am - - - - - NE 13 20 7 11 - - -
05/08:00am - - - - - NE 11 19 6 10 - - -
05/07:30am - - - - - NE 13 19 7 10 - - -
05/07:00am - - - - - ENE 15 19 8 10 - - -
05/06:30am - - - - - ENE 13 17 7 9 - - -
05/06:00am - - - - - ENE 17 19 9 10 - - -
05/05:30am - - - - - ENE 11 13 6 7 - - -
05/05:00am - - - - - ENE 17 22 9 12 - - -
05/04:30am - - - - - ENE 17 20 9 11 - - -
05/04:00am - - - - - ENE 13 15 7 8 - - -
05/03:30am - - - - - ENE 15 17 8 9 - - -
05/03:00am - - - - - E 15 17 8 9 - - -
05/02:30am - - - - - E 9 11 5 6 - - -
05/02:00am - - - - - ESE 9 11 5 6 - - -
05/01:30am - - - - - SE 13 15 7 8 - - -
05/01:00am - - - - - SSE 11 13 6 7 - - -
05/12:30am - - - - - SE 13 13 7 7 - - -
05/12:00am - - - - - SE 15 15 8 8 - - -
 
Date/Time
WST
Temp
°C
App
Temp
°C
Dew
Point
Rel
Hum
%
Delta-T
°C
Wind Press
QNH
hPa
Press
MSL
hPa
Rain
since 9 am
mm
Dir
 
Spd
km/h
Gust
km/h
Spd
kts
Gust
kts
04/11:30pm - - - - - SE 15 17 8 9 - - -
04/11:00pm - - - - - SSE 17 22 9 12 - - -
04/10:30pm - - - - - SSE 15 19 8 10 - - -
04/10:00pm - - - - - SSE 13 17 7 9 - - -
04/09:30pm - - - - - SSE 13 15 7 8 - - -
04/09:00pm - - - - - SSE 19 24 10 13 - - -
04/08:30pm - - - - - SSE 26 37 14 20 - - -
04/08:00pm - - - - - SSE 30 41 16 22 - - -
04/07:30pm - - - - - SSE 30 39 16 21 - - -
04/07:00pm - - - - - S 30 41 16 22 - - -
04/06:30pm - - - - - S 32 43 17 23 - - -
04/06:00pm - - - - - S 35 43 19 23 - - -
04/05:30pm - - - - - S 32 37 17 20 - - -
04/05:00pm - - - - - S 24 33 13 18 - - -
04/04:30pm - - - - - S 26 32 14 17 - - -
04/04:00pm - - - - - S 24 30 13 16 - - -
04/03:30pm - - - - - SSW 28 33 15 18 - - -
04/03:00pm - - - - - SW 28 33 15 18 - - -
04/02:30pm - - - - - SW 30 33 16 18 - - -
04/02:00pm - - - - - SW 28 35 15 19 - - -

Other Formats:

Comma delimited format used in spreadsheet applications
http://www.bom.gov.au/fwo/IDW60801/IDW60801.94607.axf

JavaScript Object Notation format (JSON) in row-major order
http://www.bom.gov.au/fwo/IDW60801/IDW60801.94607.json